createdAt,value
2023-04-09T00:04:27.676Z,3.67
2023-04-09T00:09:30.742Z,3.85
2023-04-09T00:14:33.723Z,3.80
2023-04-09T00:19:36.123Z,3.58
2023-04-09T00:24:38.970Z,3.75
2023-04-09T00:29:41.464Z,4.15
2023-04-09T00:34:44.378Z,4.00
2023-04-09T00:39:47.892Z,3.75
2023-04-09T00:44:50.767Z,3.70
2023-04-09T00:49:53.562Z,3.58
2023-04-09T00:54:57.119Z,3.42
2023-04-09T00:59:59.740Z,3.80
2023-04-09T01:11:03.137Z,3.55
2023-04-09T01:16:09.502Z,3.55
2023-04-09T01:21:14.520Z,3.20
2023-04-09T01:26:22.077Z,3.08
2023-04-09T01:31:31.259Z,3.63
2023-04-09T01:36:34.572Z,3.78
2023-04-09T01:41:38.379Z,3.00
2023-04-09T01:46:41.657Z,2.60
2023-04-09T01:51:44.673Z,3.28
2023-04-09T01:56:48.689Z,3.08
2023-04-09T02:01:56.454Z,3.20
2023-04-09T02:07:02.326Z,3.35
2023-04-09T02:12:06.336Z,2.90
2023-04-09T02:17:09.225Z,3.05
2023-04-09T02:22:12.346Z,2.58
2023-04-09T02:27:15.085Z,3.20
2023-04-09T02:32:17.677Z,3.33
2023-04-09T02:37:20.818Z,2.78
2023-04-09T02:42:23.281Z,3.33
2023-04-09T02:47:27.503Z,3.20
2023-04-09T02:52:30.611Z,2.90
2023-04-09T02:57:33.900Z,2.70
2023-04-09T03:02:36.634Z,3.08
2023-04-09T03:07:39.284Z,3.05
2023-04-09T03:12:44.835Z,2.78
2023-04-09T03:17:47.707Z,2.05
2023-04-09T03:22:50.650Z,2.30
2023-04-09T03:28:04.366Z,2.20
2023-04-09T03:33:16.774Z,2.50
2023-04-09T03:38:29.406Z,2.65
2023-04-09T03:43:32.889Z,3.00
2023-04-09T03:48:36.283Z,2.72
2023-04-09T03:53:40.734Z,2.58
2023-04-09T03:58:43.798Z,2.63
2023-04-09T04:03:49.520Z,2.35
2023-04-09T04:08:58.714Z,3.40
2023-04-09T04:14:10.168Z,2.58
2023-04-09T04:19:14.076Z,2.78
2023-04-09T04:24:21.730Z,2.75
2023-04-09T04:29:24.492Z,3.35
2023-04-09T04:34:31.138Z,2.70
2023-04-09T04:39:41.244Z,2.55
2023-04-09T04:44:47.971Z,2.70
2023-04-09T04:50:10.993Z,3.10
2023-04-09T04:55:37.061Z,2.75
2023-04-09T05:00:40.122Z,4.25
2023-04-09T05:05:43.816Z,3.45
2023-04-09T05:10:47.242Z,4.40
2023-04-09T05:20:52.144Z,3.00
2023-04-09T05:25:54.909Z,3.42
2023-04-09T05:31:12.208Z,2.50
2023-04-09T05:36:21.633Z,2.97
2023-04-09T05:41:24.430Z,2.60
2023-04-09T05:46:47.564Z,2.85
2023-04-09T05:51:54.244Z,3.60
2023-04-09T05:57:02.021Z,3.78
2023-04-09T06:02:11.482Z,2.97
2023-04-09T06:07:14.547Z,3.72
2023-04-09T06:12:18.166Z,3.70
2023-04-09T06:17:21.072Z,4.10
2023-04-09T06:22:23.575Z,2.78
2023-04-09T06:27:26.922Z,4.22
2023-04-09T06:37:32.210Z,3.00
2023-04-09T06:42:35.169Z,2.95
2023-04-09T06:47:50.222Z,2.30
2023-04-09T06:52:53.073Z,2.30
2023-04-09T06:57:55.609Z,2.70
2023-04-09T07:02:58.492Z,2.38
2023-04-09T07:08:01.820Z,2.88
2023-04-09T07:13:04.362Z,2.45
2023-04-09T07:18:06.897Z,2.75
2023-04-09T07:23:09.597Z,2.22
2023-04-09T07:28:12.194Z,2.20
2023-04-09T07:33:14.724Z,2.00
2023-04-09T07:38:17.538Z,2.65
2023-04-09T07:43:21.486Z,2.97
2023-04-09T07:48:25.301Z,2.17
2023-04-09T07:53:27.939Z,1.85
2023-04-09T07:58:30.734Z,2.35
2023-04-09T08:08:39.210Z,2.25
2023-04-09T08:13:42.029Z,2.28
2023-04-09T08:18:44.623Z,2.35
2023-04-09T08:23:47.197Z,2.33
2023-04-09T08:28:49.876Z,3.30
2023-04-09T08:33:53.864Z,2.60
2023-04-09T08:38:56.981Z,2.65
2023-04-09T08:44:00.097Z,2.28
2023-04-09T08:49:03.049Z,2.38
2023-04-09T08:54:05.827Z,2.40
2023-04-09T08:59:08.542Z,2.25
2023-04-09T09:04:11.821Z,2.60
2023-04-09T09:09:16.423Z,2.08
2023-04-09T09:14:19.736Z,2.72
2023-04-09T09:19:26.534Z,2.65
2023-04-09T09:24:29.666Z,2.40
2023-04-09T09:29:33.242Z,2.35
2023-04-09T09:34:35.894Z,2.42
2023-04-09T09:39:47.332Z,2.20
2023-04-09T09:44:50.414Z,2.70
2023-04-09T09:49:53.478Z,3.10
2023-04-09T09:54:59.192Z,2.10
2023-04-09T10:00:02.476Z,2.85
2023-04-09T10:05:11.957Z,2.45
2023-04-09T10:10:15.250Z,1.92
2023-04-09T10:15:19.351Z,2.53
2023-04-09T10:25:24.236Z,2.92
2023-04-09T10:30:34.111Z,2.33
2023-04-09T10:40:42.902Z,2.70
2023-04-09T10:45:45.405Z,2.20
2023-04-09T10:50:50.813Z,2.58
2023-04-09T10:55:54.593Z,2.03
2023-04-09T11:01:02.137Z,2.95
2023-04-09T11:06:10.613Z,2.80
2023-04-09T11:11:13.590Z,3.15
2023-04-09T11:16:22.688Z,3.20
2023-04-09T11:21:28.169Z,2.33
2023-04-09T11:26:37.166Z,3.33
2023-04-09T11:31:39.824Z,2.40
2023-04-09T11:36:42.529Z,2.75
2023-04-09T11:41:45.680Z,2.88
2023-04-09T11:46:49.430Z,2.38
2023-04-09T11:51:52.152Z,2.50
2023-04-09T11:56:56.385Z,2.90
2023-04-09T12:01:59.317Z,2.83
2023-04-09T12:07:02.030Z,4.00
2023-04-09T12:12:09.262Z,3.60
2023-04-09T12:17:11.879Z,3.13
2023-04-09T12:22:14.614Z,2.47
2023-04-09T12:27:17.189Z,3.05
2023-04-09T12:32:19.819Z,2.78
2023-04-09T12:37:23.055Z,2.58
2023-04-09T12:42:26.256Z,3.35
2023-04-09T12:47:29.248Z,3.10
2023-04-09T12:52:32.063Z,2.85
2023-04-09T12:57:42.232Z,2.72
2023-04-09T13:02:45.042Z,2.47
2023-04-09T13:08:08.258Z,2.95
2023-04-09T13:13:31.169Z,2.60
2023-04-09T13:18:33.707Z,2.67
2023-04-09T13:23:42.465Z,2.88
2023-04-09T13:28:47.937Z,2.75
2023-04-09T13:33:50.590Z,2.45
2023-04-09T13:38:53.407Z,2.80
2023-04-09T13:44:14.741Z,2.85
2023-04-09T13:49:36.361Z,3.30
2023-04-09T13:54:57.859Z,2.95
2023-04-09T14:00:20.181Z,3.70
2023-04-09T14:05:22.781Z,3.55
2023-04-09T14:10:25.907Z,4.82
2023-04-09T14:15:28.720Z,3.95
2023-04-09T14:20:31.588Z,3.90
2023-04-09T14:25:34.124Z,3.40
2023-04-09T14:30:36.636Z,3.10
2023-04-09T14:35:39.302Z,3.17
2023-04-09T14:40:42.096Z,3.83
2023-04-09T14:45:44.863Z,3.90
2023-04-09T14:50:48.271Z,3.65
2023-04-09T14:55:51.214Z,3.58
2023-04-09T15:00:54.000Z,3.42
2023-04-09T15:05:57.127Z,3.63
2023-04-09T15:10:59.707Z,3.15
2023-04-09T15:16:02.696Z,3.55
2023-04-09T15:21:05.875Z,2.95
2023-04-09T15:26:09.486Z,3.08
2023-04-09T15:31:12.876Z,2.92
2023-04-09T15:36:16.015Z,2.55
2023-04-09T15:41:19.171Z,2.50
2023-04-09T15:46:22.133Z,3.65
2023-04-09T15:51:25.126Z,3.58
2023-04-09T15:56:27.700Z,4.25
2023-04-09T16:01:30.355Z,4.10
2023-04-09T16:06:33.034Z,4.97
2023-04-09T16:11:36.645Z,4.85
2023-04-09T16:16:39.281Z,6.57
2023-04-09T16:21:44.977Z,5.32
2023-04-09T16:26:47.720Z,7.35
2023-04-09T16:31:50.364Z,9.70
2023-04-09T16:36:53.127Z,11.73
2023-04-09T16:41:56.938Z,9.55
2023-04-09T16:46:59.485Z,10.02
2023-04-09T16:52:02.295Z,10.25
2023-04-09T16:57:05.183Z,9.13
2023-04-09T17:02:08.103Z,8.25
2023-04-09T17:07:10.985Z,11.00
2023-04-09T17:12:13.694Z,9.13
2023-04-09T17:17:17.267Z,9.90
2023-04-09T17:22:19.972Z,11.05
2023-04-09T17:27:22.554Z,10.52
2023-04-09T17:32:25.127Z,21.63
2023-04-09T17:37:29.158Z,27.33
2023-04-09T17:47:34.272Z,16.27
2023-04-09T17:52:40.198Z,13.27
2023-04-09T17:57:43.212Z,12.82
2023-04-09T18:02:46.487Z,11.88
2023-04-09T18:07:49.395Z,17.05
2023-04-09T18:12:52.161Z,18.27
2023-04-09T18:17:54.610Z,16.02
2023-04-09T18:22:57.352Z,12.93
2023-04-09T18:28:00.157Z,14.27
2023-04-09T18:33:02.714Z,12.68
2023-04-09T18:38:05.752Z,13.07
2023-04-09T18:43:08.364Z,10.27
2023-04-09T18:48:11.111Z,10.02
2023-04-09T18:53:14.064Z,9.10
2023-04-09T18:58:18.355Z,8.27
2023-04-09T19:03:21.677Z,7.10
2023-04-09T19:08:24.705Z,6.25
2023-04-09T19:13:27.473Z,6.90
2023-04-09T19:18:30.890Z,5.85
2023-04-09T19:23:34.888Z,5.80
2023-04-09T19:28:37.976Z,4.90
2023-04-09T19:33:40.837Z,3.95
2023-04-09T19:38:43.601Z,4.45
2023-04-09T19:43:46.549Z,6.05
2023-04-09T19:48:48.978Z,7.28
2023-04-09T19:53:51.814Z,6.80
2023-04-09T19:58:55.009Z,7.95
2023-04-09T20:03:58.170Z,7.75
2023-04-09T20:09:01.777Z,8.85
2023-04-09T20:14:04.709Z,9.95
2023-04-09T20:19:07.704Z,8.35
2023-04-09T20:24:10.253Z,8.48
2023-04-09T20:29:13.194Z,9.10
2023-04-09T20:34:16.210Z,6.50
2023-04-09T20:39:18.858Z,6.00
2023-04-09T20:44:21.845Z,6.47
2023-04-09T20:49:24.902Z,5.90
2023-04-09T20:54:27.791Z,6.25
2023-04-09T20:59:30.322Z,6.75
2023-04-09T21:04:32.836Z,6.35
2023-04-09T21:09:35.855Z,6.30
2023-04-09T21:14:38.412Z,5.85
2023-04-09T21:19:41.111Z,5.93
2023-04-09T21:24:43.861Z,5.22
2023-04-09T21:29:47.056Z,5.05
2023-04-09T21:34:49.763Z,5.18
2023-04-09T21:39:52.256Z,5.38
2023-04-09T21:44:54.814Z,5.75
2023-04-09T21:49:57.858Z,6.32
2023-04-09T21:55:00.584Z,5.55
2023-04-09T22:00:05.368Z,5.47
2023-04-09T22:05:10.198Z,4.82
2023-04-09T22:10:13.140Z,4.57
2023-04-09T22:15:16.647Z,4.43
2023-04-09T22:20:19.103Z,4.32
2023-04-09T22:25:22.523Z,3.70
2023-04-09T22:30:25.165Z,3.25
2023-04-09T22:35:27.801Z,3.78
2023-04-09T22:40:31.688Z,3.35
2023-04-09T22:45:34.319Z,3.28
2023-04-09T22:50:37.809Z,3.65
2023-04-09T22:55:40.958Z,2.78
2023-04-09T23:00:44.012Z,3.05
2023-04-09T23:05:46.868Z,3.50
2023-04-09T23:10:49.403Z,3.42
2023-04-09T23:15:52.109Z,3.80
2023-04-09T23:20:55.055Z,3.10
2023-04-09T23:25:57.621Z,3.05
2023-04-09T23:31:00.266Z,3.15
2023-04-09T23:36:03.293Z,3.00
2023-04-09T23:41:06.213Z,3.20
2023-04-09T23:46:09.052Z,2.95
2023-04-09T23:51:17.167Z,2.78
2023-04-09T23:56:19.762Z,3.30
